Time;durP1;ratioP1;P1;durP2;ratioP2;P2;SDS_P1;SDS_P2;PMS_P1;PMS_P2;Temp;Humidity;BMP_temperature;BMP_pressure;BME280_temperature;BME280_humidity;BME280_pressure;Samples;Min_cycle;Max_cycle;Signal;HPM_P1;HPM_P2
2021/05/03 00:02:11;;;;;;;;;1.00;1.00;;;;;15.27;49.53;98169.66;4763258;29;103832;-76
2021/05/03 00:04:38;;;;;;;;;1.00;1.00;;;;;15.25;49.46;98171.81;4781353;29;104678;-76
2021/05/03 00:07:05;;;;;;;;;0.25;0.25;;;;;15.28;49.85;98175.94;4785945;29;104643;-76
2021/05/03 00:09:32;;;;;;;;;1.00;1.00;;;;;15.26;49.76;98180.81;4773092;29;102524;-76
2021/05/03 00:11:59;;;;;;;;;2.00;1.00;;;;;15.24;49.41;98178.31;4781960;29;103881;-76
2021/05/03 00:14:26;;;;;;;;;2.00;1.00;;;;;15.26;49.46;98178.09;4763067;29;104343;-76
2021/05/03 00:16:52;;;;;;;;;2.00;1.00;;;;;15.26;49.27;98195.25;4780080;29;103636;-76
2021/05/03 00:19:20;;;;;;;;;1.00;0.00;;;;;15.24;49.55;98188.38;4728926;29;102859;-76
2021/05/03 00:21:47;;;;;;;;;1.00;1.00;;;;;15.23;49.93;98203.88;4786527;29;102532;-76
2021/05/03 00:24:14;;;;;;;;;1.00;1.00;;;;;15.24;49.51;98207.44;4774051;29;104290;-76
2021/05/03 00:26:40;;;;;;;;;0.25;0.25;;;;;15.24;49.50;98213.72;4786358;29;103748;-76
2021/05/03 00:29:08;;;;;;;;;1.00;1.00;;;;;15.23;49.50;98212.06;4768157;29;102530;-76
2021/05/03 00:31:35;;;;;;;;;1.00;1.00;;;;;15.23;49.36;98206.63;4786616;29;105210;-76
2021/05/03 00:34:03;;;;;;;;;1.00;1.00;;;;;15.22;49.45;98210.41;4785991;29;104098;-76
2021/05/03 00:36:30;;;;;;;;;1.00;1.00;;;;;15.21;49.47;98207.94;4784363;29;102535;-76
2021/05/03 00:38:57;;;;;;;;;1.00;1.00;;;;;15.23;49.30;98217.50;4769318;29;103475;-76
2021/05/03 00:41:24;;;;;;;;;0.50;0.50;;;;;15.22;49.45;98209.59;4788975;29;105606;-76
2021/05/03 00:43:51;;;;;;;;;1.00;1.00;;;;;15.22;49.28;98204.16;4769915;29;104143;-76
2021/05/03 00:46:20;;;;;;;;;0.00;0.00;;;;;15.21;49.37;98200.59;4784038;29;102313;-76
2021/05/03 00:48:47;;;;;;;;;2.00;1.00;;;;;15.20;49.17;98201.66;4766545;29;102277;-76
2021/05/03 00:51:14;;;;;;;;;0.00;0.00;;;;;15.20;49.50;98198.94;4787215;29;103345;-76
2021/05/03 00:53:41;;;;;;;;;1.50;1.50;;;;;15.19;49.37;98195.38;4784058;29;104267;-76
2021/05/03 00:56:08;;;;;;;;;2.00;2.00;;;;;15.21;49.16;98202.50;4773968;29;103649;-76
2021/05/03 00:58:35;;;;;;;;;1.00;1.00;;;;;15.19;49.38;98203.56;4788162;29;103203;-76
2021/05/03 01:01:03;;;;;;;;;0.75;0.75;;;;;15.19;49.35;98200.00;4780539;29;104256;-76
2021/05/03 01:03:30;;;;;;;;;1.00;1.00;;;;;15.20;49.24;98201.66;4757184;29;105722;-76
2021/05/03 01:05:56;;;;;;;;;1.00;1.00;;;;;15.19;49.59;98197.28;4788100;29;102973;-76
2021/05/03 01:08:23;;;;;;;;;1.00;1.00;;;;;15.18;49.30;98204.59;4766775;29;103341;-76
2021/05/03 01:10:50;;;;;;;;;1.00;1.00;;;;;15.18;49.47;98204.59;4784322;29;104429;-76
2021/05/03 01:13:17;;;;;;;;;1.50;1.50;;;;;15.17;49.71;98210.31;4762973;29;104073;-76
2021/05/03 01:15:44;;;;;;;;;0.00;0.00;;;;;15.15;49.10;98213.28;4756239;29;102192;-76
2021/05/03 01:18:11;;;;;;;;;1.75;1.75;;;;;15.15;49.17;98213.28;4749007;29;104061;-76
2021/05/03 01:20:38;;;;;;;;;1.75;1.00;;;;;15.14;49.54;98219.78;4752083;29;104215;-76
2021/05/03 01:23:05;;;;;;;;;1.00;1.00;;;;;15.16;49.59;98219.53;4751135;29;103068;-76
2021/05/03 01:25:37;;;;;;;;;1.25;1.25;;;;;15.15;49.43;98229.59;4786242;29;102527;-76
2021/05/03 01:28:05;;;;;;;;;1.00;1.00;;;;;15.15;49.15;98226.06;4768957;29;104395;-76
2021/05/03 01:30:32;;;;;;;;;2.00;2.00;;;;;15.14;48.95;98236.13;4771212;29;102413;-76
2021/05/03 01:32:59;;;;;;;;;1.00;1.00;;;;;15.15;49.34;98232.34;4784293;29;104254;-76
2021/05/03 01:35:27;;;;;;;;;1.00;1.00;;;;;15.13;49.01;98223.56;4783152;29;103626;-76
2021/05/03 01:37:55;;;;;;;;;0.00;0.00;;;;;15.13;49.23;98229.00;4764807;29;102640;-76
2021/05/03 01:40:23;;;;;;;;;1.25;1.25;;;;;15.13;49.08;98234.44;4785450;29;104020;-76
2021/05/03 01:42:51;;;;;;;;;0.00;0.00;;;;;15.12;49.31;98232.81;4783604;29;104038;-76
2021/05/03 01:45:19;;;;;;;;;1.00;1.00;;;;;15.13;48.94;98245.34;4792950;29;102399;-75
2021/05/03 01:47:46;;;;;;;;;0.50;0.50;;;;;15.11;49.09;98239.34;4769889;29;102549;-76
2021/05/03 01:50:14;;;;;;;;;0.00;0.00;;;;;15.12;49.31;98248.31;4790087;29;102482;-76
2021/05/03 01:52:41;;;;;;;;;1.00;1.00;;;;;15.11;49.54;98247.50;4761652;29;104088;-76
2021/05/03 01:55:09;;;;;;;;;1.00;1.00;;;;;15.10;49.04;98237.66;4793769;29;102324;-76
2021/05/03 01:57:36;;;;;;;;;1.00;1.00;;;;;15.11;48.92;98235.78;4772416;29;103320;-76
2021/05/03 02:00:05;;;;;;;;;0.25;0.25;;;;;15.09;49.40;98244.16;4785849;29;104330;-76
2021/05/03 02:02:32;;;;;;;;;1.00;1.00;;;;;15.10;49.31;98245.84;4774527;29;104613;-76
2021/05/03 02:04:59;;;;;;;;;1.00;1.00;;;;;15.10;49.39;98247.72;4789815;29;102573;-76
2021/05/03 02:07:25;;;;;;;;;1.00;1.00;;;;;15.08;49.04;98242.50;4782478;29;103811;-76
2021/05/03 02:09:52;;;;;;;;;0.25;0.25;;;;;15.09;49.50;98244.16;4791986;29;103569;-76
2021/05/03 02:12:19;;;;;;;;;1.00;1.00;;;;;15.10;49.33;98255.91;4789161;29;104397;-76
2021/05/03 02:14:47;;;;;;;;;0.00;0.00;;;;;15.08;48.88;98242.50;4783929;29;102560;-76
2021/05/03 02:17:14;;;;;;;;;1.00;0.00;;;;;15.08;49.52;98242.50;4788704;29;102163;-76
2021/05/03 02:19:42;;;;;;;;;1.00;1.00;;;;;15.08;49.15;98245.22;4789878;29;102333;-76
2021/05/03 02:22:09;;;;;;;;;0.00;0.00;;;;;15.08;49.20;98245.22;4783599;29;104190;-76
2021/05/03 02:24:36;;;;;;;;;0.00;0.00;;;;;15.08;49.49;98253.41;4794815;29;102126;-76
2021/05/03 02:27:02;;;;;;;;;0.00;0.00;;;;;15.08;49.15;98247.94;4791607;29;105402;-76
2021/05/03 02:29:29;;;;;;;;;2.00;1.00;;;;;15.07;49.33;98245.50;4792978;29;103230;-76
2021/05/03 02:31:56;;;;;;;;;1.00;1.00;;;;;15.07;49.55;98256.38;4783636;29;104243;-76
2021/05/03 02:34:23;;;;;;;;;1.00;1.00;;;;;15.07;49.39;98251.78;4789127;29;102875;-76
2021/05/03 02:36:51;;;;;;;;;1.00;1.00;;;;;15.06;48.89;98252.81;4788685;29;102288;-76
2021/05/03 02:39:18;;;;;;;;;0.75;0.75;;;;;15.06;49.17;98255.56;4789500;29;105202;-76
2021/05/03 02:41:44;;;;;;;;;1.75;1.00;;;;;15.05;49.40;98264.78;4782085;29;104066;-76
2021/05/03 02:44:11;;;;;;;;;1.00;1.00;;;;;15.05;49.21;98264.78;4787383;29;102736;-76
2021/05/03 02:46:38;;;;;;;;;1.00;1.00;;;;;15.04;49.20;98268.56;4764219;29;103655;-76
2021/05/03 02:49:05;;;;;;;;;1.00;0.50;;;;;15.05;49.46;98272.13;4770726;29;104123;-76
2021/05/03 02:51:33;;;;;;;;;0.50;0.00;;;;;15.04;48.90;98274.00;4785039;29;104217;-76
2021/05/03 02:53:59;;;;;;;;;1.25;1.00;;;;;15.04;48.58;98267.75;4788666;29;104623;-76
2021/05/03 02:56:26;;;;;;;;;1.00;1.00;;;;;15.04;49.20;98270.47;4768887;29;102591;-76
2021/05/03 02:58:53;;;;;;;;;0.75;0.75;;;;;15.04;49.32;98278.66;4787847;29;102582;-76
2021/05/03 03:01:19;;;;;;;;;0.00;0.00;;;;;15.03;48.97;98272.38;4780580;29;104332;-76
2021/05/03 03:03:46;;;;;;;;;0.00;0.00;;;;;15.03;49.10;98285.16;4781616;29;103862;-76
2021/05/03 03:06:13;;;;;;;;;0.00;0.00;;;;;15.02;49.35;98284.31;4787179;29;102495;-76
2021/05/03 03:08:39;;;;;;;;;0.00;0.00;;;;;15.03;49.10;98288.72;4781205;29;102659;-76
2021/05/03 03:11:06;;;;;;;;;0.75;0.75;;;;;15.03;49.24;98287.88;4789028;29;106359;-76
2021/05/03 03:13:33;;;;;;;;;0.50;0.50;;;;;15.03;48.96;98296.03;4789312;29;102842;-76
2021/05/03 03:15:59;;;;;;;;;0.75;0.00;;;;;15.03;48.98;98294.16;4785789;29;103134;-76
2021/05/03 03:18:26;;;;;;;;;1.00;1.00;;;;;15.01;48.84;98301.72;4783316;29;102679;-76
2021/05/03 03:20:53;;;;;;;;;1.00;1.00;;;;;15.01;49.03;98293.56;4771952;29;104094;-76
2021/05/03 03:23:20;;;;;;;;;1.00;0.00;;;;;15.00;48.96;98300.06;4769338;29;103988;-76
2021/05/03 03:25:46;;;;;;;;;0.50;0.50;;;;;15.01;49.05;98301.72;4779925;29;102635;-76
2021/05/03 03:28:13;;;;;;;;;0.50;0.00;;;;;15.01;49.13;98304.44;4769573;29;102578;-76
2021/05/03 03:30:40;;;;;;;;;0.50;0.50;;;;;15.01;49.31;98314.50;4757266;29;104110;-76
2021/05/03 03:33:06;;;;;;;;;0.00;0.00;;;;;15.01;49.11;98315.34;4790774;29;103267;-76
2021/05/03 03:35:33;;;;;;;;;1.00;0.75;;;;;15.01;49.31;98311.78;4770711;29;102953;-76
2021/05/03 03:38:00;;;;;;;;;1.00;1.00;;;;;15.01;48.58;98317.22;4788896;29;104218;-76
2021/05/03 03:40:27;;;;;;;;;0.25;0.25;;;;;15.01;48.92;98315.34;4789662;29;104025;-76
2021/05/03 03:42:53;;;;;;;;;0.00;0.00;;;;;15.00;49.04;98321.84;4773194;29;102891;-76
2021/05/03 03:45:20;;;;;;;;;1.00;1.00;;;;;15.00;48.58;98315.56;4785346;29;103731;-76
2021/05/03 03:47:47;;;;;;;;;0.00;0.00;;;;;15.00;48.72;98337.34;4771810;29;104267;-76
2021/05/03 03:50:14;;;;;;;;;1.75;1.00;;;;;15.00;49.04;98331.91;4780001;29;106108;-76
2021/05/03 03:52:41;;;;;;;;;1.67;1.00;;;;;14.99;48.79;98336.53;4789485;29;102451;-76
2021/05/03 03:55:08;;;;;;;;;0.00;0.00;;;;;15.00;48.94;98329.19;4773767;29;102627;-76
2021/05/03 03:57:35;;;;;;;;;0.00;0.00;;;;;14.98;48.95;98340.31;4789793;29;103674;-76
2021/05/03 04:00:03;;;;;;;;;1.50;1.00;;;;;14.99;48.81;98333.81;4767003;29;104576;-76
2021/05/03 04:02:31;;;;;;;;;0.00;0.00;;;;;14.99;49.14;98330.25;4775264;29;102493;-76
2021/05/03 04:07:59;;;;;;;;;1.00;1.00;;;;;14.98;49.29;98343.03;4765510;29;102294;-76
2021/05/03 04:23:45;;;;;;;;;0.75;0.75;;;;;14.97;49.12;98352.28;4788490;29;102597;-76
2021/05/03 04:26:13;;;;;;;;;0.25;0.25;;;;;14.99;49.04;98352.88;4785122;29;102289;-76
2021/05/03 04:28:45;;;;;;;;;0.50;0.00;;;;;14.97;48.87;98354.16;4759006;29;102683;-76
2021/05/03 04:31:12;;;;;;;;;0.25;0.25;;;;;14.98;48.95;98359.38;4786149;29;104912;-76
2021/05/03 04:33:39;;;;;;;;;0.00;0.00;;;;;14.98;48.81;98364.00;4791615;29;102610;-76
2021/05/03 04:36:06;;;;;;;;;0.00;0.00;;;;;14.97;48.91;98365.88;4763726;29;102578;-76
2021/05/03 04:38:33;;;;;;;;;0.00;0.00;;;;;14.98;49.10;98361.28;4789390;29;105411;-76
2021/05/03 04:41:00;;;;;;;;;0.00;0.00;;;;;14.98;48.89;98364.00;4781708;29;104294;-76
2021/05/03 04:43:26;;;;;;;;;1.00;1.00;;;;;14.98;48.80;98372.16;4785912;29;102594;-76
2021/05/03 04:45:53;;;;;;;;;0.00;0.00;;;;;14.97;48.59;98371.34;4788126;29;102455;-76
2021/05/03 04:48:20;;;;;;;;;1.00;1.00;;;;;14.96;48.79;98366.94;4790274;29;104097;-76
2021/05/03 04:50:46;;;;;;;;;0.00;0.00;;;;;14.96;48.63;98358.78;4781670;29;104324;-75
2021/05/03 04:53:13;;;;;;;;;0.00;0.00;;;;;14.96;49.00;98358.78;4780049;29;103996;-76
2021/05/03 04:55:40;;;;;;;;;0.00;0.00;;;;;14.97;48.70;98370.50;4790524;29;102680;-76
2021/05/03 04:58:07;;;;;;;;;0.00;0.00;;;;;14.97;48.65;98375.94;4791838;29;102501;-76
2021/05/03 05:00:34;;;;;;;;;0.00;0.00;;;;;14.97;48.74;98373.22;4784086;29;104104;-76
2021/05/03 05:03:01;;;;;;;;;1.00;1.00;;;;;14.96;48.99;98374.28;4791865;29;102573;-76
2021/05/03 05:05:28;;;;;;;;;1.00;1.00;;;;;14.96;48.70;98371.56;4776201;29;102364;-77
2021/05/03 05:07:55;;;;;;;;;0.00;0.00;;;;;14.96;48.98;98374.28;4787241;29;103160;-75
2021/05/03 05:10:22;;;;;;;;;0.00;0.00;;;;;14.94;49.04;98377.25;4783260;29;104269;-76
2021/05/03 05:12:49;;;;;;;;;1.00;0.25;;;;;14.95;49.02;98378.88;4793924;29;102142;-76
2021/05/03 05:15:16;;;;;;;;;0.75;0.75;;;;;14.96;48.50;98388.72;4774912;29;104303;-76
2021/05/03 05:17:43;;;;;;;;;0.00;0.00;;;;;14.97;48.69;98384.09;4789794;29;102568;-76
2021/05/03 05:20:10;;;;;;;;;2.00;0.50;;;;;14.94;48.28;98385.41;4762209;29;104823;-76
2021/05/03 05:22:38;;;;;;;;;1.00;1.00;;;;;14.96;48.84;98391.44;4775448;29;104112;-76
2021/05/03 05:25:08;;;;;;;;;0.00;0.00;;;;;14.96;49.03;98391.44;4780188;29;102951;-77
2021/05/03 05:27:35;;;;;;;;;0.50;0.50;;;;;14.97;48.42;98390.38;4773758;29;102693;-75
2021/05/03 05:30:04;;;;;;;;;0.00;0.00;;;;;14.96;48.26;98396.06;4773127;29;104296;-76
2021/05/03 05:32:30;;;;;;;;;0.75;0.75;;;;;14.95;48.86;98395.22;4786335;29;102957;-77
2021/05/03 05:34:57;;;;;;;;;0.75;0.75;;;;;14.96;48.60;98398.78;4789485;29;102444;-76
2021/05/03 05:37:24;;;;;;;;;1.00;0.50;;;;;14.94;48.33;98399.03;4796140;29;104074;-77
2021/05/03 05:39:50;;;;;;;;;1.00;1.00;;;;;14.97;48.39;98408.63;4790618;29;104370;-77
2021/05/03 05:42:17;;;;;;;;;1.00;0.00;;;;;14.96;48.54;98415.94;4786693;29;102788;-77
2021/05/03 05:44:44;;;;;;;;;0.25;0.00;;;;;14.97;48.18;98409.44;4794556;29;103135;-77
2021/05/03 05:47:10;;;;;;;;;1.00;1.00;;;;;14.97;48.18;98425.78;4789073;29;103996;-77
2021/05/03 05:49:38;;;;;;;;;0.00;0.00;;;;;14.97;48.50;98416.78;4778574;29;104279;-76
2021/05/03 05:52:05;;;;;;;;;2.00;2.00;;;;;14.97;48.91;98431.22;4774999;29;102214;-76
2021/05/03 05:54:32;;;;;;;;;0.00;0.00;;;;;14.96;48.51;98426.00;4793233;29;102474;-76
2021/05/03 05:56:59;;;;;;;;;0.75;0.75;;;;;14.97;48.42;98431.22;4789928;29;102671;-77
2021/05/03 05:59:26;;;;;;;;;0.00;0.00;;;;;14.96;48.72;98426.84;4775659;29;103478;-77
2021/05/03 06:01:52;;;;;;;;;0.00;0.00;;;;;14.96;48.13;98424.13;4773546;29;102651;-77
2021/05/03 06:04:19;;;;;;;;;0.50;0.00;;;;;14.98;48.14;98421.16;4790236;29;102604;-76
2021/05/03 06:06:46;;;;;;;;;0.00;0.00;;;;;14.96;48.22;98418.66;4793192;29;102501;-77
2021/05/03 06:09:13;;;;;;;;;0.50;0.00;;;;;14.97;48.69;98419.50;4787586;29;104070;-77
2021/05/03 06:11:39;;;;;;;;;0.00;0.00;;;;;14.97;48.64;98427.66;4782639;29;102459;-76
2021/05/03 06:14:06;;;;;;;;;0.00;0.00;;;;;14.95;48.47;98435.25;4784343;29;102539;-77
2021/05/03 06:16:32;;;;;;;;;0.50;0.25;;;;;14.95;47.96;98432.53;4762933;29;102689;-77
2021/05/03 06:18:59;;;;;;;;;0.00;0.00;;;;;14.95;48.02;98438.78;4792754;29;104087;-77
2021/05/03 06:21:26;;;;;;;;;1.00;0.00;;;;;14.95;47.99;98443.44;4790736;29;102459;-77
2021/05/03 06:23:52;;;;;;;;;1.00;0.00;;;;;14.95;48.37;98440.72;4791553;29;102496;-77
2021/05/03 06:26:19;;;;;;;;;1.00;0.00;;;;;14.96;47.76;98440.44;4772084;29;102397;-77
2021/05/03 06:28:48;;;;;;;;;1.00;1.00;;;;;14.97;48.43;98454.91;4770922;29;104135;-77
2021/05/03 06:31:14;;;;;;;;;0.00;0.00;;;;;14.97;48.18;98453.00;4782571;29;102663;-77
2021/05/03 06:33:42;;;;;;;;;0.00;0.00;;;;;14.97;48.08;98458.47;4794736;29;103031;-77
2021/05/03 06:36:08;;;;;;;;;0.00;0.00;;;;;14.97;48.42;98455.72;4776639;29;102786;-77
2021/05/03 06:38:35;;;;;;;;;0.00;0.00;;;;;14.99;48.51;98461.78;4787530;29;104379;-76
2021/05/03 06:41:02;;;;;;;;;0.00;0.00;;;;;15.00;47.81;98470.75;4789858;29;103604;-76
2021/05/03 06:43:29;;;;;;;;;1.00;0.00;;;;;14.98;48.13;98476.47;4785309;29;103301;-76
2021/05/03 06:45:58;;;;;;;;;0.00;0.00;;;;;14.99;48.37;98469.13;4767556;29;104207;-77
2021/05/03 06:48:25;;;;;;;;;1.00;0.75;;;;;14.98;48.32;98470.19;4770429;29;104158;-77
2021/05/03 06:50:52;;;;;;;;;0.00;0.00;;;;;14.99;48.04;98464.50;4790216;29;102383;-76
2021/05/03 06:53:19;;;;;;;;;0.50;0.50;;;;;15.00;47.93;98478.94;4788395;29;103074;-76
2021/05/03 06:55:46;;;;;;;;;0.75;0.50;;;;;14.98;47.99;98471.00;4793778;29;102793;-76
2021/05/03 06:58:13;;;;;;;;;1.75;1.00;;;;;14.99;48.41;98477.28;4778198;29;104086;-76
2021/05/03 07:00:41;;;;;;;;;0.00;0.00;;;;;15.00;48.03;98478.94;4784628;29;103972;-76
2021/05/03 07:03:08;;;;;;;;;0.00;0.00;;;;;14.98;47.93;98481.91;4766673;29;103714;-76
2021/05/03 07:05:35;;;;;;;;;1.00;1.00;;;;;15.00;48.22;98484.38;4788767;29;102219;-76
2021/05/03 07:08:02;;;;;;;;;0.75;0.75;;;;;14.98;48.38;98487.34;4768826;29;104447;-76
2021/05/03 07:10:30;;;;;;;;;0.00;0.00;;;;;14.98;47.93;98476.47;4788602;29;102619;-76
2021/05/03 07:12:57;;;;;;;;;1.00;1.00;;;;;14.98;47.83;98479.19;4789009;29;106297;-76
2021/05/03 07:15:24;;;;;;;;;0.00;0.00;;;;;14.99;47.89;98488.19;4784743;29;102888;-76
2021/05/03 07:17:50;;;;;;;;;1.00;1.00;;;;;14.97;47.94;98485.69;4790008;29;104406;-76
2021/05/03 07:20:17;;;;;;;;;0.25;0.00;;;;;14.99;47.69;98496.34;4767753;29;103886;-76
2021/05/03 07:22:45;;;;;;;;;0.50;0.50;;;;;14.99;47.98;98494.47;4776379;29;102496;-76
2021/05/03 07:25:12;;;;;;;;;1.75;1.00;;;;;14.99;47.74;98499.06;4769260;29;105787;-76
2021/05/03 07:27:40;;;;;;;;;0.00;0.00;;;;;14.99;47.75;98510.81;4781673;29;108511;-76
2021/05/03 07:30:08;;;;;;;;;0.25;0.25;;;;;15.00;47.80;98512.44;4778350;29;104009;-76
2021/05/03 07:32:35;;;;;;;;;0.00;0.00;;;;;14.99;48.12;98518.13;4791047;29;102418;-76
2021/05/03 07:35:05;;;;;;;;;0.75;0.75;;;;;15.00;47.64;98520.59;4786134;29;102387;-76
2021/05/03 07:37:32;;;;;;;;;0.50;0.50;;;;;15.01;48.02;98516.00;4749554;29;105250;-76
2021/05/03 07:40:02;;;;;;;;;0.00;0.00;;;;;15.00;48.13;98520.59;4775941;29;102362;-76
2021/05/03 07:42:29;;;;;;;;;0.00;0.00;;;;;15.01;47.87;98511.38;4788735;29;102734;-76
2021/05/03 07:45:09;;;;;;;;;1.00;0.00;;;;;15.01;47.99;98518.72;4767768;29;102558;-76
2021/05/03 07:47:36;;;;;;;;;0.25;0.00;;;;;15.00;48.20;98527.94;4784744;29;103937;-76
2021/05/03 07:50:04;;;;;;;;;0.00;0.00;;;;;15.01;47.75;98525.00;4784770;29;104612;-76
2021/05/03 07:52:31;;;;;;;;;0.00;0.00;;;;;15.02;47.73;98526.66;4784084;29;103841;-76
2021/05/03 07:54:59;;;;;;;;;0.00;0.00;;;;;15.03;47.70;98532.94;4767718;29;104375;-76
2021/05/03 07:57:26;;;;;;;;;1.00;0.50;;;;;15.04;48.25;98537.34;4785885;29;104271;-76
2021/05/03 07:59:53;;;;;;;;;0.00;0.00;;;;;15.05;48.62;98547.16;4765512;29;104045;-76
2021/05/03 08:02:20;;;;;;;;;1.75;1.00;;;;;15.07;48.22;98539.59;4762076;29;102313;-76
2021/05/03 08:04:48;;;;;;;;;1.00;1.00;;;;;15.06;47.80;98541.47;4791146;29;102467;-76
2021/05/03 08:07:15;;;;;;;;;0.00;0.00;;;;;15.08;48.11;98542.06;4781751;29;104105;-76
2021/05/03 08:09:43;;;;;;;;;1.00;1.00;;;;;15.08;48.03;98547.50;4770952;29;104051;-76
2021/05/03 08:12:10;;;;;;;;;0.00;0.00;;;;;15.09;48.02;98554.63;4789755;29;103505;-76
2021/05/03 08:14:38;;;;;;;;;1.00;1.00;;;;;15.09;47.82;98554.63;4781476;29;104484;-76
2021/05/03 08:17:07;;;;;;;;;0.25;0.00;;;;;15.10;47.54;98560.91;4780765;29;104109;-75
2021/05/03 08:19:34;;;;;;;;;0.50;0.50;;;;;15.11;47.46;98563.41;4791793;29;103495;-75
2021/05/03 08:22:02;;;;;;;;;0.50;0.50;;;;;15.10;48.02;98555.47;4770056;29;102467;-75
2021/05/03 08:24:29;;;;;;;;;0.00;0.00;;;;;15.10;47.83;98578.06;4787576;29;102821;-75
2021/05/03 08:26:58;;;;;;;;;0.00;0.00;;;;;15.09;47.63;98587.31;4778976;29;104093;-75
2021/05/03 08:29:24;;;;;;;;;0.00;0.00;;;;;15.10;48.10;98580.81;4789402;29;104219;-76
2021/05/03 08:31:52;;;;;;;;;0.00;0.00;;;;;15.11;47.44;98589.81;4769737;29;102808;-76
2021/05/03 08:34:18;;;;;;;;;0.00;0.00;;;;;15.11;47.67;98590.63;4790150;29;102525;-76
2021/05/03 08:36:45;;;;;;;;;0.75;0.00;;;;;15.12;47.99;98594.19;4784363;29;105232;-76
2021/05/03 08:39:12;;;;;;;;;0.50;0.00;;;;;15.12;47.95;98600.47;4789803;29;102710;-76
2021/05/03 08:41:39;;;;;;;;;1.00;1.00;;;;;15.12;48.08;98594.19;4791965;29;102138;-76
2021/05/03 08:44:07;;;;;;;;;1.00;0.00;;;;;15.13;47.51;98593.94;4772265;29;102563;-76
2021/05/03 08:46:39;;;;;;;;;0.00;0.00;;;;;15.12;47.97;98592.31;4771121;29;104245;-76
2021/05/03 08:49:16;;;;;;;;;0.50;0.50;;;;;15.13;47.90;98595.84;4773371;29;102648;-76
2021/05/03 08:51:49;;;;;;;;;0.00;0.00;;;;;15.13;47.55;98598.56;4754867;29;102108;-76
2021/05/03 08:56:46;;;;;;;;;0.75;0.25;;;;;15.14;48.07;98602.94;4775053;29;104316;-76
2021/05/03 08:59:13;;;;;;;;;0.00;0.00;;;;;15.14;47.53;98605.69;4773200;29;104147;-76
2021/05/03 09:01:47;;;;;;;;;0.00;0.00;;;;;15.14;48.16;98592.91;4789512;29;102434;-76
2021/05/03 09:04:15;;;;;;;;;1.50;1.00;;;;;15.13;47.55;98599.41;4790043;29;102776;-76
2021/05/03 09:06:58;;;;;;;;;0.75;0.00;;;;;15.14;47.85;98605.69;4794432;29;104232;-76
2021/05/03 09:09:41;;;;;;;;;0.50;0.50;;;;;15.14;47.75;98602.94;4724062;29;102666;-76
2021/05/03 09:12:13;;;;;;;;;0.00;0.00;;;;;15.13;47.39;98604.84;4786956;29;102435;-76
2021/05/03 09:14:49;;;;;;;;;1.25;0.50;;;;;15.14;47.42;98611.13;4783004;29;103513;-75
2021/05/03 09:17:31;;;;;;;;;0.00;0.00;;;;;15.14;47.97;98606.50;4709727;29;108821;-75
2021/05/03 09:20:05;;;;;;;;;1.00;0.50;;;;;15.15;47.29;98613.63;4771877;29;103659;-75
2021/05/03 09:22:43;;;;;;;;;0.00;0.00;;;;;15.15;47.99;98612.78;4788974;29;103892;-75
2021/05/03 09:25:29;;;;;;;;;0.00;0.00;;;;;15.17;47.31;98616.94;4771860;29;102323;-75
2021/05/03 09:28:10;;;;;;;;;0.00;0.00;;;;;15.16;47.58;98609.00;4720730;29;109040;-76
2021/05/03 09:30:55;;;;;;;;;1.00;0.75;;;;;15.16;47.85;98614.47;4786538;29;102508;-76
2021/05/03 09:33:25;;;;;;;;;2.00;0.25;;;;;15.15;47.66;98608.19;4729786;29;103211;-76
2021/05/03 09:36:06;;;;;;;;;0.25;0.25;;;;;15.15;47.32;98620.97;4793404;29;102055;-76
2021/05/03 09:38:46;;;;;;;;;0.00;0.00;;;;;15.16;47.77;98626.19;4793161;29;104096;-75
2021/05/03 09:41:23;;;;;;;;;0.75;0.75;;;;;15.15;47.57;98613.63;4790000;29;102765;-76
2021/05/03 09:44:02;;;;;;;;;0.00;0.00;;;;;15.15;47.60;98623.69;4785101;29;102575;-76
2021/05/03 09:46:40;;;;;;;;;0.00;0.00;;;;;15.16;47.59;98623.47;4795249;29;103775;-76
2021/05/03 09:49:11;;;;;;;;;0.25;0.00;;;;;15.15;47.58;98632.69;4772289;29;104548;-75
2021/05/03 09:51:48;;;;;;;;;0.75;0.75;;;;;15.18;47.52;98637.69;4770767;29;102622;-75
2021/05/03 09:54:16;;;;;;;;;0.00;0.00;;;;;15.17;47.19;98633.28;4785783;29;102073;-76
2021/05/03 09:56:50;;;;;;;;;0.25;0.25;;;;;15.18;47.81;98636.84;4799050;29;103247;-76
2021/05/03 09:59:43;;;;;;;;;0.00;0.00;;;;;15.19;47.11;98630.34;4785642;29;109086;-75
2021/05/03 10:02:15;;;;;;;;;1.00;0.00;;;;;15.20;47.74;98632.00;4783980;29;102192;-75
2021/05/03 10:04:47;;;;;;;;;1.00;1.00;;;;;15.20;47.24;98626.56;4787319;29;102032;-76
2021/05/03 10:07:17;;;;;;;;;0.25;0.25;;;;;15.21;47.31;98638.28;4766850;29;104818;-76
2021/05/03 10:09:48;;;;;;;;;0.00;0.00;;;;;15.21;47.40;98632.84;4775594;29;104192;-76
2021/05/03 10:12:17;;;;;;;;;0.00;0.00;;;;;15.21;47.28;98630.94;4782567;29;102902;-76
2021/05/03 10:14:45;;;;;;;;;0.00;0.00;;;;;15.22;47.30;98618.16;4777368;29;102269;-76
2021/05/03 10:17:12;;;;;;;;;0.00;0.00;;;;;15.23;47.63;98620.63;4775516;29;104246;-76
2021/05/03 10:19:39;;;;;;;;;1.00;0.00;;;;;15.22;47.37;98623.63;4790263;29;108836;-75
2021/05/03 10:22:07;;;;;;;;;1.25;1.00;;;;;15.22;47.92;98624.41;4779800;29;102490;-75
2021/05/03 10:24:34;;;;;;;;;0.00;0.00;;;;;15.23;47.54;98630.69;4793491;29;102288;-75
2021/05/03 10:27:01;;;;;;;;;0.00;0.00;;;;;15.24;47.12;98610.59;4790580;29;102605;-76
2021/05/03 10:29:40;;;;;;;;;0.00;0.00;;;;;15.23;47.12;98617.91;4789580;29;104549;-75
2021/05/03 10:32:08;;;;;;;;;0.50;0.50;;;;;15.25;47.05;98621.25;4797082;29;102241;-75
2021/05/03 10:34:40;;;;;;;;;0.00;0.00;;;;;15.26;47.07;98619.38;4786971;29;103018;-76
2021/05/03 10:37:28;;;;;;;;;0.00;0.00;;;;;15.26;47.23;98617.47;4790235;29;102663;-76
2021/05/03 10:39:56;;;;;;;;;0.00;0.00;;;;;15.27;47.37;98621.00;4737047;29;108753;-76
2021/05/03 10:42:23;;;;;;;;;0.50;0.50;;;;;15.28;47.28;98617.22;4792374;29;102033;-76
2021/05/03 10:45:10;;;;;;;;;1.00;0.00;;;;;15.28;47.39;98617.22;4757758;29;103579;-75
2021/05/03 10:47:52;;;;;;;;;1.00;1.00;;;;;15.30;47.35;98626.00;4786539;29;103466;-76
2021/05/03 10:50:30;;;;;;;;;0.00;0.00;;;;;15.30;47.75;98620.56;4735796;29;109036;-76
2021/05/03 10:53:43;;;;;;;;;1.00;1.00;;;;;15.31;47.16;98630.41;4794771;29;102220;-76
2021/05/03 10:56:13;;;;;;;;;0.00;0.00;;;;;15.31;47.82;98622.22;4718963;29;102331;-75
2021/05/03 10:58:55;;;;;;;;;0.00;0.00;;;;;15.32;47.13;98634.78;4790514;29;103013;-75
2021/05/03 11:01:21;;;;;;;;;0.00;0.00;;;;;15.32;47.27;98632.88;4724167;29;108996;-76
2021/05/03 11:03:54;;;;;;;;;1.00;0.25;;;;;15.33;47.50;98637.28;4796372;29;102588;-76
2021/05/03 11:06:37;;;;;;;;;0.00;0.00;;;;;15.35;47.36;98634.34;4787228;29;102286;-76
2021/05/03 11:09:35;;;;;;;;;1.00;1.00;;;;;15.34;47.78;98638.09;4782978;29;102606;-76
2021/05/03 11:12:12;;;;;;;;;0.75;0.00;;;;;15.35;47.14;98634.34;4728873;29;109046;-76
2021/05/03 11:15:20;;;;;;;;;0.00;0.00;;;;;15.36;47.23;98630.53;4727253;29;102369;-76
2021/05/03 11:18:20;;;;;;;;;0.00;0.00;;;;;15.35;47.51;98626.16;4792931;29;102482;-76
2021/05/03 11:21:13;;;;;;;;;0.50;0.00;;;;;15.38;47.28;98622.97;4789231;29;102511;-76
2021/05/03 11:23:40;;;;;;;;;0.00;0.00;;;;;15.38;47.31;98622.97;4790271;29;109017;-75
2021/05/03 11:26:29;;;;;;;;;0.00;0.00;;;;;15.39;47.18;98630.06;4773695;29;107560;-75
2021/05/03 11:29:11;;;;;;;;;0.00;0.00;;;;;15.39;47.34;98624.63;4660329;29;102442;-76
2021/05/03 11:31:39;;;;;;;;;0.00;0.00;;;;;15.42;47.31;98624.16;4778104;29;102693;-75
2021/05/03 11:34:12;;;;;;;;;0.75;0.00;;;;;15.41;47.01;98628.78;4782002;29;103247;-75
2021/05/03 11:36:43;;;;;;;;;0.00;0.00;;;;;15.42;46.99;98626.88;4770993;29;102784;-76
2021/05/03 11:39:19;;;;;;;;;0.00;0.00;;;;;15.43;47.29;98632.09;4767013;29;103363;-75
2021/05/03 11:42:02;;;;;;;;;0.00;0.00;;;;;15.43;47.30;98626.66;4764678;29;102516;-76
2021/05/03 11:47:30;;;;;;;;;0.50;0.50;;;;;15.46;46.79;98636.25;4682912;29;102809;-75
2021/05/03 11:49:57;;;;;;;;;0.00;0.00;;;;;15.46;47.20;98628.91;4771621;29;103141;-75
2021/05/03 11:52:34;;;;;;;;;1.00;0.00;;;;;15.48;47.27;98639.59;4768151;29;103495;-76
2021/05/03 11:55:09;;;;;;;;;1.00;0.25;;;;;15.48;47.34;98632.25;4770854;29;103990;-75
2021/05/03 11:57:39;;;;;;;;;0.25;0.00;;;;;15.49;47.20;98633.88;4767241;29;102702;-76